sensor_id;sensor_type;location;lat;lon;timestamp;temperature;humidity
4874;DHT22;2451;49.970;9.068;2023-02-28T00:00:06;0.20;99.90
4874;DHT22;2451;49.970;9.068;2023-02-28T00:02:39;0.10;99.90
4874;DHT22;2451;49.970;9.068;2023-02-28T00:05:05;0.10;99.90
4874;DHT22;2451;49.970;9.068;2023-02-28T00:07:31;0.10;99.90
4874;DHT22;2451;49.970;9.068;2023-02-28T00:09:57;0.10;99.90
4874;DHT22;2451;49.970;9.068;2023-02-28T00:12:23;0.10;99.90
4874;DHT22;2451;49.970;9.068;2023-02-28T00:14:49;0.10;99.90
4874;DHT22;2451;49.970;9.068;2023-02-28T00:17:21;0.10;99.90
4874;DHT22;2451;49.970;9.068;2023-02-28T00:19:48;0.10;99.90
4874;DHT22;2451;49.970;9.068;2023-02-28T00:22:15;0.10;99.90
4874;DHT22;2451;49.970;9.068;2023-02-28T00:24:41;0.10;99.90
4874;DHT22;2451;49.970;9.068;2023-02-28T00:27:06;0.10;99.90
4874;DHT22;2451;49.970;9.068;2023-02-28T00:29:32;0.10;99.90
4874;DHT22;2451;49.970;9.068;2023-02-28T00:31:57;0.00;99.90
4874;DHT22;2451;49.970;9.068;2023-02-28T00:34:23;0.00;99.90
4874;DHT22;2451;49.970;9.068;2023-02-28T00:36:49;0.00;99.90
4874;DHT22;2451;49.970;9.068;2023-02-28T00:39:15;0.00;99.90
4874;DHT22;2451;49.970;9.068;2023-02-28T00:41:41;0.00;99.90
4874;DHT22;2451;49.970;9.068;2023-02-28T00:44:09;0.00;99.90
4874;DHT22;2451;49.970;9.068;2023-02-28T00:46:35;0.00;99.90
4874;DHT22;2451;49.970;9.068;2023-02-28T00:49:00;-0.10;99.90
4874;DHT22;2451;49.970;9.068;2023-02-28T00:51:26;-0.10;99.90
4874;DHT22;2451;49.970;9.068;2023-02-28T00:53:51;-0.10;99.90
4874;DHT22;2451;49.970;9.068;2023-02-28T00:56:17;-0.10;99.90
4874;DHT22;2451;49.970;9.068;2023-02-28T00:58:43;-0.10;99.90
4874;DHT22;2451;49.970;9.068;2023-02-28T01:01:08;-0.10;99.90
4874;DHT22;2451;49.970;9.068;2023-02-28T01:03:34;-0.10;99.90
4874;DHT22;2451;49.970;9.068;2023-02-28T01:06:00;-0.10;99.90
4874;DHT22;2451;49.970;9.068;2023-02-28T01:08:26;-0.10;99.90
4874;DHT22;2451;49.970;9.068;2023-02-28T01:10:52;-0.10;99.90
4874;DHT22;2451;49.970;9.068;2023-02-28T01:13:19;-0.10;99.90
4874;DHT22;2451;49.970;9.068;2023-02-28T01:15:53;-0.10;99.90
4874;DHT22;2451;49.970;9.068;2023-02-28T01:18:21;-0.20;99.90
4874;DHT22;2451;49.970;9.068;2023-02-28T01:20:47;-0.20;99.90
4874;DHT22;2451;49.970;9.068;2023-02-28T01:23:13;-0.20;99.90
4874;DHT22;2451;49.970;9.068;2023-02-28T01:25:38;-0.20;99.90
4874;DHT22;2451;49.970;9.068;2023-02-28T01:28:05;-0.20;99.90
4874;DHT22;2451;49.970;9.068;2023-02-28T01:30:31;-0.30;99.90
4874;DHT22;2451;49.970;9.068;2023-02-28T01:32:56;-0.30;99.90
4874;DHT22;2451;49.970;9.068;2023-02-28T01:35:22;-0.30;99.90
4874;DHT22;2451;49.970;9.068;2023-02-28T01:37:47;-0.30;99.90
4874;DHT22;2451;49.970;9.068;2023-02-28T01:40:13;-0.30;99.90
4874;DHT22;2451;49.970;9.068;2023-02-28T01:42:39;-0.30;99.90
4874;DHT22;2451;49.970;9.068;2023-02-28T01:45:22;-0.30;99.90
4874;DHT22;2451;49.970;9.068;2023-02-28T01:47:50;-0.30;99.90
4874;DHT22;2451;49.970;9.068;2023-02-28T01:50:20;-0.30;99.90
4874;DHT22;2451;49.970;9.068;2023-02-28T01:52:49;-0.30;99.90
4874;DHT22;2451;49.970;9.068;2023-02-28T01:55:17;-0.40;99.90
4874;DHT22;2451;49.970;9.068;2023-02-28T01:57:48;-0.40;99.90
4874;DHT22;2451;49.970;9.068;2023-02-28T02:00:17;-0.40;99.90
4874;DHT22;2451;49.970;9.068;2023-02-28T02:02:46;-0.40;99.90
4874;DHT22;2451;49.970;9.068;2023-02-28T02:05:16;-0.40;99.90
4874;DHT22;2451;49.970;9.068;2023-02-28T02:07:43;-0.40;99.90
4874;DHT22;2451;49.970;9.068;2023-02-28T02:10:14;-0.40;99.90
4874;DHT22;2451;49.970;9.068;2023-02-28T02:12:56;-0.40;99.90
4874;DHT22;2451;49.970;9.068;2023-02-28T02:21:12;-0.50;99.90
4874;DHT22;2451;49.970;9.068;2023-02-28T02:37:52;-0.50;99.90
4874;DHT22;2451;49.970;9.068;2023-02-28T02:40:27;-0.50;99.90
4874;DHT22;2451;49.970;9.068;2023-02-28T02:43:03;-0.50;99.90
4874;DHT22;2451;49.970;9.068;2023-02-28T02:45:36;-0.60;99.90
4874;DHT22;2451;49.970;9.068;2023-02-28T02:48:07;-0.50;99.90
4874;DHT22;2451;49.970;9.068;2023-02-28T02:50:38;-0.60;99.90
4874;DHT22;2451;49.970;9.068;2023-02-28T02:53:06;-0.50;99.90
4874;DHT22;2451;49.970;9.068;2023-02-28T02:55:34;-0.60;99.90
4874;DHT22;2451;49.970;9.068;2023-02-28T02:58:05;-0.60;99.90
4874;DHT22;2451;49.970;9.068;2023-02-28T03:00:38;-0.60;99.90
4874;DHT22;2451;49.970;9.068;2023-02-28T03:03:07;-0.60;99.90
4874;DHT22;2451;49.970;9.068;2023-02-28T03:05:54;-0.60;99.90
4874;DHT22;2451;49.970;9.068;2023-02-28T03:08:20;-0.60;99.90
4874;DHT22;2451;49.970;9.068;2023-02-28T03:10:51;-0.60;99.90
4874;DHT22;2451;49.970;9.068;2023-02-28T03:16:27;-0.60;99.90
4874;DHT22;2451;49.970;9.068;2023-02-28T03:24:40;-0.60;99.90
4874;DHT22;2451;49.970;9.068;2023-02-28T03:27:29;-0.60;99.90
4874;DHT22;2451;49.970;9.068;2023-02-28T03:32:35;-0.70;99.90
4874;DHT22;2451;49.970;9.068;2023-02-28T03:35:21;-0.80;99.90
4874;DHT22;2451;49.970;9.068;2023-02-28T03:37:50;-0.80;99.90
4874;DHT22;2451;49.970;9.068;2023-02-28T03:40:20;-0.80;99.90
4874;DHT22;2451;49.970;9.068;2023-02-28T03:42:49;-0.80;99.90
4874;DHT22;2451;49.970;9.068;2023-02-28T03:45:19;-0.80;99.90
4874;DHT22;2451;49.970;9.068;2023-02-28T03:47:58;-0.80;99.90
4874;DHT22;2451;49.970;9.068;2023-02-28T03:50:36;-0.80;99.90
4874;DHT22;2451;49.970;9.068;2023-02-28T03:53:10;-0.80;99.90
4874;DHT22;2451;49.970;9.068;2023-02-28T03:55:49;-0.80;99.90
4874;DHT22;2451;49.970;9.068;2023-02-28T03:58:24;-0.80;99.90
4874;DHT22;2451;49.970;9.068;2023-02-28T04:01:12;-0.80;99.90
4874;DHT22;2451;49.970;9.068;2023-02-28T04:03:40;-0.80;99.90
4874;DHT22;2451;49.970;9.068;2023-02-28T04:06:08;-0.80;99.90
4874;DHT22;2451;49.970;9.068;2023-02-28T04:08:38;-0.80;99.90
4874;DHT22;2451;49.970;9.068;2023-02-28T04:11:08;-0.80;99.90
4874;DHT22;2451;49.970;9.068;2023-02-28T04:13:40;-0.90;99.90
4874;DHT22;2451;49.970;9.068;2023-02-28T04:16:09;-0.80;99.90
4874;DHT22;2451;49.970;9.068;2023-02-28T04:18:40;-0.90;99.90
4874;DHT22;2451;49.970;9.068;2023-02-28T04:21:08;-0.90;99.90
4874;DHT22;2451;49.970;9.068;2023-02-28T04:23:34;-0.90;99.90
4874;DHT22;2451;49.970;9.068;2023-02-28T04:25:59;-0.90;99.90
4874;DHT22;2451;49.970;9.068;2023-02-28T04:28:25;-0.90;99.90
4874;DHT22;2451;49.970;9.068;2023-02-28T04:30:55;-1.00;99.90
4874;DHT22;2451;49.970;9.068;2023-02-28T04:33:21;-1.00;99.90
4874;DHT22;2451;49.970;9.068;2023-02-28T04:35:46;-1.00;99.90
4874;DHT22;2451;49.970;9.068;2023-02-28T04:38:12;-1.00;99.90
4874;DHT22;2451;49.970;9.068;2023-02-28T04:40:37;-1.00;99.90
4874;DHT22;2451;49.970;9.068;2023-02-28T04:43:03;-1.00;99.90
4874;DHT22;2451;49.970;9.068;2023-02-28T04:45:29;-1.10;99.90
4874;DHT22;2451;49.970;9.068;2023-02-28T04:47:57;-1.00;99.90
4874;DHT22;2451;49.970;9.068;2023-02-28T04:50:23;-1.00;99.90
4874;DHT22;2451;49.970;9.068;2023-02-28T04:52:49;-1.00;99.90
4874;DHT22;2451;49.970;9.068;2023-02-28T04:55:14;-1.10;99.90
4874;DHT22;2451;49.970;9.068;2023-02-28T04:57:40;-1.10;99.90
4874;DHT22;2451;49.970;9.068;2023-02-28T05:00:08;-1.10;99.90
4874;DHT22;2451;49.970;9.068;2023-02-28T05:02:37;-1.10;99.90
4874;DHT22;2451;49.970;9.068;2023-02-28T05:05:04;-1.00;99.90
4874;DHT22;2451;49.970;9.068;2023-02-28T05:07:30;-1.10;99.90
4874;DHT22;2451;49.970;9.068;2023-02-28T05:09:56;-1.00;99.90
4874;DHT22;2451;49.970;9.068;2023-02-28T05:12:21;-1.00;99.90
4874;DHT22;2451;49.970;9.068;2023-02-28T05:14:47;-1.00;99.90
4874;DHT22;2451;49.970;9.068;2023-02-28T05:17:12;-1.10;99.90
4874;DHT22;2451;49.970;9.068;2023-02-28T05:19:38;-1.10;99.90
4874;DHT22;2451;49.970;9.068;2023-02-28T05:22:03;-1.10;99.90
4874;DHT22;2451;49.970;9.068;2023-02-28T05:24:29;-1.10;99.90
4874;DHT22;2451;49.970;9.068;2023-02-28T05:26:55;-1.10;99.90
4874;DHT22;2451;49.970;9.068;2023-02-28T05:29:21;-1.10;99.90
4874;DHT22;2451;49.970;9.068;2023-02-28T05:31:47;-1.10;99.90
4874;DHT22;2451;49.970;9.068;2023-02-28T05:34:13;-1.20;99.90
4874;DHT22;2451;49.970;9.068;2023-02-28T05:36:40;-1.10;99.90
4874;DHT22;2451;49.970;9.068;2023-02-28T05:39:06;-1.10;99.90
4874;DHT22;2451;49.970;9.068;2023-02-28T05:41:38;-1.10;99.90
4874;DHT22;2451;49.970;9.068;2023-02-28T05:44:03;-1.20;99.90
4874;DHT22;2451;49.970;9.068;2023-02-28T05:46:29;-1.20;99.90
4874;DHT22;2451;49.970;9.068;2023-02-28T05:48:54;-1.10;99.90
4874;DHT22;2451;49.970;9.068;2023-02-28T05:51:23;-1.10;99.90
4874;DHT22;2451;49.970;9.068;2023-02-28T05:53:48;-1.20;99.90
4874;DHT22;2451;49.970;9.068;2023-02-28T05:56:14;-1.20;99.90
4874;DHT22;2451;49.970;9.068;2023-02-28T05:58:40;-1.20;99.90
4874;DHT22;2451;49.970;9.068;2023-02-28T06:01:32;-1.20;99.90
4874;DHT22;2451;49.970;9.068;2023-02-28T06:03:59;-1.20;99.90
4874;DHT22;2451;49.970;9.068;2023-02-28T06:06:26;-1.20;99.90
4874;DHT22;2451;49.970;9.068;2023-02-28T06:08:51;-1.20;99.90
4874;DHT22;2451;49.970;9.068;2023-02-28T06:11:17;-1.20;99.90
4874;DHT22;2451;49.970;9.068;2023-02-28T06:13:42;-1.20;99.90
4874;DHT22;2451;49.970;9.068;2023-02-28T06:16:10;-1.20;99.90
4874;DHT22;2451;49.970;9.068;2023-02-28T06:18:36;-1.20;99.90
4874;DHT22;2451;49.970;9.068;2023-02-28T06:21:02;-1.20;99.90
4874;DHT22;2451;49.970;9.068;2023-02-28T06:23:27;-1.20;99.90
4874;DHT22;2451;49.970;9.068;2023-02-28T06:25:53;-1.10;99.90
4874;DHT22;2451;49.970;9.068;2023-02-28T06:28:19;-1.10;99.90
4874;DHT22;2451;49.970;9.068;2023-02-28T06:30:44;-1.10;99.90
4874;DHT22;2451;49.970;9.068;2023-02-28T06:33:10;-1.10;99.90
4874;DHT22;2451;49.970;9.068;2023-02-28T06:35:35;-1.10;99.90
4874;DHT22;2451;49.970;9.068;2023-02-28T06:38:01;-1.00;99.90
4874;DHT22;2451;49.970;9.068;2023-02-28T06:40:27;-1.00;99.90
4874;DHT22;2451;49.970;9.068;2023-02-28T06:42:52;-1.10;99.90
4874;DHT22;2451;49.970;9.068;2023-02-28T06:45:18;-1.00;99.90
4874;DHT22;2451;49.970;9.068;2023-02-28T06:47:43;-1.00;99.90
4874;DHT22;2451;49.970;9.068;2023-02-28T06:50:11;-1.00;99.90
4874;DHT22;2451;49.970;9.068;2023-02-28T06:52:37;-1.00;99.90
4874;DHT22;2451;49.970;9.068;2023-02-28T06:55:04;-0.90;99.90
4874;DHT22;2451;49.970;9.068;2023-02-28T06:57:31;-0.80;99.90
4874;DHT22;2451;49.970;9.068;2023-02-28T06:59:58;-0.70;99.90
4874;DHT22;2451;49.970;9.068;2023-02-28T07:02:24;-0.60;99.90
4874;DHT22;2451;49.970;9.068;2023-02-28T07:04:50;-0.40;99.90
4874;DHT22;2451;49.970;9.068;2023-02-28T07:07:15;-0.10;99.90
4874;DHT22;2451;49.970;9.068;2023-02-28T07:09:41;0.30;99.90
4874;DHT22;2451;49.970;9.068;2023-02-28T07:12:06;0.80;99.90
4874;DHT22;2451;49.970;9.068;2023-02-28T07:14:32;1.60;99.90
4874;DHT22;2451;49.970;9.068;2023-02-28T07:16:57;2.50;99.90
4874;DHT22;2451;49.970;9.068;2023-02-28T07:19:23;3.40;99.90
4874;DHT22;2451;49.970;9.068;2023-02-28T07:21:48;4.10;99.90
4874;DHT22;2451;49.970;9.068;2023-02-28T07:24:14;4.80;99.90
4874;DHT22;2451;49.970;9.068;2023-02-28T07:26:41;5.50;99.90
4874;DHT22;2451;49.970;9.068;2023-02-28T07:29:07;6.10;98.50
4874;DHT22;2451;49.970;9.068;2023-02-28T07:31:32;6.40;94.90
4874;DHT22;2451;49.970;9.068;2023-02-28T07:33:58;6.60;93.30
4874;DHT22;2451;49.970;9.068;2023-02-28T07:36:23;6.70;92.60
4874;DHT22;2451;49.970;9.068;2023-02-28T07:38:49;6.80;91.50
4874;DHT22;2451;49.970;9.068;2023-02-28T07:41:20;7.00;91.50
4874;DHT22;2451;49.970;9.068;2023-02-28T07:43:46;7.30;90.20
4874;DHT22;2451;49.970;9.068;2023-02-28T07:46:14;7.30;90.00
4874;DHT22;2451;49.970;9.068;2023-02-28T07:48:43;7.50;88.50
4874;DHT22;2451;49.970;9.068;2023-02-28T07:51:09;7.70;88.10
4874;DHT22;2451;49.970;9.068;2023-02-28T07:53:35;7.90;86.20
4874;DHT22;2451;49.970;9.068;2023-02-28T07:56:02;7.80;84.40
4874;DHT22;2451;49.970;9.068;2023-02-28T07:58:29;7.80;83.90
4874;DHT22;2451;49.970;9.068;2023-02-28T08:00:56;7.50;83.40
4874;DHT22;2451;49.970;9.068;2023-02-28T08:03:22;7.40;86.00
4874;DHT22;2451;49.970;9.068;2023-02-28T08:05:48;7.40;83.80
4874;DHT22;2451;49.970;9.068;2023-02-28T08:08:15;7.40;84.80
4874;DHT22;2451;49.970;9.068;2023-02-28T08:10:41;7.00;84.90
4874;DHT22;2451;49.970;9.068;2023-02-28T08:13:07;6.60;86.40
4874;DHT22;2451;49.970;9.068;2023-02-28T08:15:33;6.40;87.30
4874;DHT22;2451;49.970;9.068;2023-02-28T08:17:58;6.10;87.40
4874;DHT22;2451;49.970;9.068;2023-02-28T08:20:25;6.00;88.80
4874;DHT22;2451;49.970;9.068;2023-02-28T08:22:54;5.80;89.40
4874;DHT22;2451;49.970;9.068;2023-02-28T08:25:19;5.50;90.10
4874;DHT22;2451;49.970;9.068;2023-02-28T08:27:45;5.20;90.30
4874;DHT22;2451;49.970;9.068;2023-02-28T08:30:12;5.20;91.00
4874;DHT22;2451;49.970;9.068;2023-02-28T08:32:38;4.90;91.50
4874;DHT22;2451;49.970;9.068;2023-02-28T08:35:05;4.80;92.20
4874;DHT22;2451;49.970;9.068;2023-02-28T08:37:31;4.70;92.20
4874;DHT22;2451;49.970;9.068;2023-02-28T08:39:56;4.60;92.50
4874;DHT22;2451;49.970;9.068;2023-02-28T08:42:22;4.60;92.80
4874;DHT22;2451;49.970;9.068;2023-02-28T08:44:48;4.80;93.10
4874;DHT22;2451;49.970;9.068;2023-02-28T08:47:13;5.10;92.40
4874;DHT22;2451;49.970;9.068;2023-02-28T08:49:39;5.30;91.80
4874;DHT22;2451;49.970;9.068;2023-02-28T08:52:04;5.30;91.40
4874;DHT22;2451;49.970;9.068;2023-02-28T08:54:30;5.40;91.70
4874;DHT22;2451;49.970;9.068;2023-02-28T08:56:57;5.40;91.40
4874;DHT22;2451;49.970;9.068;2023-02-28T08:59:23;5.40;91.40
4874;DHT22;2451;49.970;9.068;2023-02-28T09:01:48;5.60;91.50
4874;DHT22;2451;49.970;9.068;2023-02-28T09:04:14;5.50;91.30
4874;DHT22;2451;49.970;9.068;2023-02-28T09:06:40;5.60;91.50
4874;DHT22;2451;49.970;9.068;2023-02-28T09:09:05;5.40;90.60
4874;DHT22;2451;49.970;9.068;2023-02-28T09:11:33;5.30;90.30
4874;DHT22;2451;49.970;9.068;2023-02-28T09:13:59;5.20;90.70
4874;DHT22;2451;49.970;9.068;2023-02-28T09:16:30;5.30;90.90
4874;DHT22;2451;49.970;9.068;2023-02-28T09:18:56;5.30;90.70
4874;DHT22;2451;49.970;9.068;2023-02-28T09:21:22;5.30;90.40
4874;DHT22;2451;49.970;9.068;2023-02-28T09:23:49;5.30;90.80
4874;DHT22;2451;49.970;9.068;2023-02-28T09:26:17;5.20;90.10
4874;DHT22;2451;49.970;9.068;2023-02-28T09:28:43;5.40;90.50
4874;DHT22;2451;49.970;9.068;2023-02-28T09:31:16;5.50;90.00
4874;DHT22;2451;49.970;9.068;2023-02-28T09:33:46;5.50;90.00
4874;DHT22;2451;49.970;9.068;2023-02-28T09:36:12;5.50;89.50
4874;DHT22;2451;49.970;9.068;2023-02-28T09:38:37;5.50;89.80
4874;DHT22;2451;49.970;9.068;2023-02-28T09:41:10;5.60;89.80
4874;DHT22;2451;49.970;9.068;2023-02-28T09:43:39;5.60;88.90
4874;DHT22;2451;49.970;9.068;2023-02-28T09:48:44;5.70;86.80
4874;DHT22;2451;49.970;9.068;2023-02-28T09:51:28;5.80;87.50
4874;DHT22;2451;49.970;9.068;2023-02-28T09:53:55;6.00;87.40
4874;DHT22;2451;49.970;9.068;2023-02-28T09:56:25;6.20;87.10
4874;DHT22;2451;49.970;9.068;2023-02-28T10:06:49;6.50;86.10
4874;DHT22;2451;49.970;9.068;2023-02-28T10:09:25;6.40;83.60
4874;DHT22;2451;49.970;9.068;2023-02-28T10:11:53;6.30;83.40
4874;DHT22;2451;49.970;9.068;2023-02-28T10:14:22;6.20;83.60
4874;DHT22;2451;49.970;9.068;2023-02-28T10:16:52;5.90;81.70
4874;DHT22;2451;49.970;9.068;2023-02-28T10:22:19;4.70;84.30
4874;DHT22;2451;49.970;9.068;2023-02-28T10:24:48;4.40;85.80
4874;DHT22;2451;49.970;9.068;2023-02-28T10:27:23;4.30;87.00
4874;DHT22;2451;49.970;9.068;2023-02-28T10:29:51;4.10;87.70
4874;DHT22;2451;49.970;9.068;2023-02-28T10:32:19;4.10;88.20
4874;DHT22;2451;49.970;9.068;2023-02-28T10:34:59;4.00;88.50
4874;DHT22;2451;49.970;9.068;2023-02-28T10:37:26;4.00;88.80
4874;DHT22;2451;49.970;9.068;2023-02-28T10:39:52;4.00;89.20
4874;DHT22;2451;49.970;9.068;2023-02-28T10:42:28;4.10;89.10
4874;DHT22;2451;49.970;9.068;2023-02-28T10:45:15;4.40;89.80
4874;DHT22;2451;49.970;9.068;2023-02-28T10:48:02;5.30;88.00
4874;DHT22;2451;49.970;9.068;2023-02-28T10:50:45;6.10;86.10
4874;DHT22;2451;49.970;9.068;2023-02-28T10:56:15;7.00;81.50
4874;DHT22;2451;49.970;9.068;2023-02-28T10:59:00;7.50;79.60
4874;DHT22;2451;49.970;9.068;2023-02-28T11:01:36;7.50;76.90
4874;DHT22;2451;49.970;9.068;2023-02-28T11:04:03;7.70;80.00
4874;DHT22;2451;49.970;9.068;2023-02-28T11:06:31;7.40;76.10
4874;DHT22;2451;49.970;9.068;2023-02-28T11:09:04;6.80;76.20
4874;DHT22;2451;49.970;9.068;2023-02-28T11:11:43;6.50;78.00
4874;DHT22;2451;49.970;9.068;2023-02-28T11:14:22;6.70;78.90
4874;DHT22;2451;49.970;9.068;2023-02-28T11:16:50;6.90;79.10
4874;DHT22;2451;49.970;9.068;2023-02-28T11:19:24;7.00;78.50
4874;DHT22;2451;49.970;9.068;2023-02-28T11:21:58;6.70;78.00
4874;DHT22;2451;49.970;9.068;2023-02-28T11:24:28;6.30;78.10
4874;DHT22;2451;49.970;9.068;2023-02-28T11:26:56;6.20;79.40
4874;DHT22;2451;49.970;9.068;2023-02-28T11:32:18;5.90;80.60
4874;DHT22;2451;49.970;9.068;2023-02-28T11:34:46;6.00;81.80
4874;DHT22;2451;49.970;9.068;2023-02-28T11:37:18;6.20;80.50
4874;DHT22;2451;49.970;9.068;2023-02-28T11:39:45;5.90;80.90
4874;DHT22;2451;49.970;9.068;2023-02-28T11:42:38;5.80;81.50
4874;DHT22;2451;49.970;9.068;2023-02-28T11:45:22;6.40;82.80
4874;DHT22;2451;49.970;9.068;2023-02-28T11:48:15;6.90;80.00
4874;DHT22;2451;49.970;9.068;2023-02-28T11:56:29;8.10;75.90
4874;DHT22;2451;49.970;9.068;2023-02-28T12:05:14;8.90;70.80
4874;DHT22;2451;49.970;9.068;2023-02-28T12:08:10;8.80;70.80
4874;DHT22;2451;49.970;9.068;2023-02-28T12:16:49;9.60;69.20
4874;DHT22;2451;49.970;9.068;2023-02-28T12:19:26;9.80;68.10
4874;DHT22;2451;49.970;9.068;2023-02-28T12:25:00;9.50;67.40
4874;DHT22;2451;49.970;9.068;2023-02-28T12:27:29;8.80;66.40
4874;DHT22;2451;49.970;9.068;2023-02-28T12:30:00;8.60;67.30
4874;DHT22;2451;49.970;9.068;2023-02-28T12:32:39;8.30;68.30
4874;DHT22;2451;49.970;9.068;2023-02-28T12:35:13;8.60;69.30
4874;DHT22;2451;49.970;9.068;2023-02-28T12:40:14;9.00;69.00
4874;DHT22;2451;49.970;9.068;2023-02-28T12:42:47;9.30;68.90
4874;DHT22;2451;49.970;9.068;2023-02-28T12:45:22;9.50;68.50
4874;DHT22;2451;49.970;9.068;2023-02-28T12:48:00;9.60;66.20
4874;DHT22;2451;49.970;9.068;2023-02-28T12:50:27;9.80;65.00
4874;DHT22;2451;49.970;9.068;2023-02-28T12:53:00;9.90;66.10
4874;DHT22;2451;49.970;9.068;2023-02-28T12:58:17;9.90;64.10
4874;DHT22;2451;49.970;9.068;2023-02-28T13:09:29;8.80;64.50
4874;DHT22;2451;49.970;9.068;2023-02-28T13:11:55;8.80;63.70
4874;DHT22;2451;49.970;9.068;2023-02-28T13:14:37;8.80;65.20
4874;DHT22;2451;49.970;9.068;2023-02-28T13:24:55;9.20;65.00
4874;DHT22;2451;49.970;9.068;2023-02-28T13:27:22;9.20;64.50
4874;DHT22;2451;49.970;9.068;2023-02-28T13:29:53;9.30;64.10
4874;DHT22;2451;49.970;9.068;2023-02-28T13:40:06;9.40;63.70
4874;DHT22;2451;49.970;9.068;2023-02-28T13:47:53;9.60;63.70
4874;DHT22;2451;49.970;9.068;2023-02-28T13:50:27;9.70;63.00
4874;DHT22;2451;49.970;9.068;2023-02-28T13:55:48;10.10;61.10
4874;DHT22;2451;49.970;9.068;2023-02-28T14:04:46;9.70;60.70
4874;DHT22;2451;49.970;9.068;2023-02-28T14:06:52;9.50;62.60
4874;DHT22;2451;49.970;9.068;2023-02-28T14:11:56;9.60;61.80
4874;DHT22;2451;49.970;9.068;2023-02-28T14:17:08;9.50;62.90
4874;DHT22;2451;49.970;9.068;2023-02-28T14:19:38;9.60;62.60
4874;DHT22;2451;49.970;9.068;2023-02-28T14:22:10;9.60;62.60
4874;DHT22;2451;49.970;9.068;2023-02-28T14:27:36;9.80;62.40
4874;DHT22;2451;49.970;9.068;2023-02-28T14:36:27;9.50;62.30
4874;DHT22;2451;49.970;9.068;2023-02-28T14:38:57;9.40;61.10
4874;DHT22;2451;49.970;9.068;2023-02-28T14:41:35;9.00;62.40
4874;DHT22;2451;49.970;9.068;2023-02-28T14:44:12;8.90;62.50
4874;DHT22;2451;49.970;9.068;2023-02-28T14:46:40;8.90;63.40
4874;DHT22;2451;49.970;9.068;2023-02-28T14:49:11;9.00;63.40
4874;DHT22;2451;49.970;9.068;2023-02-28T14:51:38;9.10;63.00
4874;DHT22;2451;49.970;9.068;2023-02-28T14:54:04;9.10;62.70
4874;DHT22;2451;49.970;9.068;2023-02-28T14:56:49;9.00;63.50
4874;DHT22;2451;49.970;9.068;2023-02-28T14:59:30;8.90;63.70
4874;DHT22;2451;49.970;9.068;2023-02-28T15:04:40;8.70;63.30
4874;DHT22;2451;49.970;9.068;2023-02-28T15:07:16;8.20;62.20
4874;DHT22;2451;49.970;9.068;2023-02-28T15:09:41;8.00;65.40
4874;DHT22;2451;49.970;9.068;2023-02-28T15:12:07;8.00;64.30
4874;DHT22;2451;49.970;9.068;2023-02-28T15:14:43;7.80;65.00
4874;DHT22;2451;49.970;9.068;2023-02-28T15:17:20;7.70;65.60
4874;DHT22;2451;49.970;9.068;2023-02-28T15:19:49;7.60;66.00
4874;DHT22;2451;49.970;9.068;2023-02-28T15:22:19;7.50;65.90
4874;DHT22;2451;49.970;9.068;2023-02-28T15:24:50;7.60;66.00
4874;DHT22;2451;49.970;9.068;2023-02-28T15:27:31;7.70;66.40
4874;DHT22;2451;49.970;9.068;2023-02-28T15:30:00;7.70;67.00
4874;DHT22;2451;49.970;9.068;2023-02-28T15:32:30;7.70;66.60
4874;DHT22;2451;49.970;9.068;2023-02-28T15:34:57;7.70;65.90
4874;DHT22;2451;49.970;9.068;2023-02-28T15:37:40;7.60;66.00
4874;DHT22;2451;49.970;9.068;2023-02-28T15:45:44;7.10;67.00
4874;DHT22;2451;49.970;9.068;2023-02-28T15:48:25;6.90;68.00
4874;DHT22;2451;49.970;9.068;2023-02-28T15:50:54;6.70;68.70
4874;DHT22;2451;49.970;9.068;2023-02-28T15:53:27;6.60;69.20
4874;DHT22;2451;49.970;9.068;2023-02-28T15:56:20;6.50;69.50
4874;DHT22;2451;49.970;9.068;2023-02-28T15:58:47;6.50;69.40
4874;DHT22;2451;49.970;9.068;2023-02-28T16:01:24;6.40;69.70
4874;DHT22;2451;49.970;9.068;2023-02-28T16:03:52;6.50;70.70
4874;DHT22;2451;49.970;9.068;2023-02-28T16:08:53;6.40;71.70
4874;DHT22;2451;49.970;9.068;2023-02-28T16:11:20;6.40;71.80
4874;DHT22;2451;49.970;9.068;2023-02-28T16:13:46;6.30;72.20
4874;DHT22;2451;49.970;9.068;2023-02-28T16:16:20;6.30;72.00
4874;DHT22;2451;49.970;9.068;2023-02-28T16:18:47;6.20;71.60
4874;DHT22;2451;49.970;9.068;2023-02-28T16:21:12;6.10;72.30
4874;DHT22;2451;49.970;9.068;2023-02-28T16:23:38;6.00;72.90
4874;DHT22;2451;49.970;9.068;2023-02-28T16:26:04;6.00;72.80
4874;DHT22;2451;49.970;9.068;2023-02-28T16:28:36;5.90;72.60
4874;DHT22;2451;49.970;9.068;2023-02-28T16:31:04;5.70;73.50
4874;DHT22;2451;49.970;9.068;2023-02-28T16:33:31;5.70;73.60
4874;DHT22;2451;49.970;9.068;2023-02-28T16:35:57;5.70;73.40
4874;DHT22;2451;49.970;9.068;2023-02-28T16:38:22;5.70;73.80
4874;DHT22;2451;49.970;9.068;2023-02-28T16:40:50;5.70;73.90
4874;DHT22;2451;49.970;9.068;2023-02-28T16:43:19;5.60;75.00
4874;DHT22;2451;49.970;9.068;2023-02-28T16:45:48;5.50;74.90
4874;DHT22;2451;49.970;9.068;2023-02-28T16:48:15;5.40;75.00
4874;DHT22;2451;49.970;9.068;2023-02-28T16:50:42;5.40;75.70
4874;DHT22;2451;49.970;9.068;2023-02-28T16:53:10;5.30;75.60
4874;DHT22;2451;49.970;9.068;2023-02-28T16:55:36;5.20;77.00
4874;DHT22;2451;49.970;9.068;2023-02-28T16:58:02;5.10;76.50
4874;DHT22;2451;49.970;9.068;2023-02-28T17:00:29;5.10;76.90
4874;DHT22;2451;49.970;9.068;2023-02-28T17:02:56;5.00;76.90
4874;DHT22;2451;49.970;9.068;2023-02-28T17:05:22;5.00;77.40
4874;DHT22;2451;49.970;9.068;2023-02-28T17:07:48;4.90;78.20
4874;DHT22;2451;49.970;9.068;2023-02-28T17:10:20;4.80;78.90
4874;DHT22;2451;49.970;9.068;2023-02-28T17:12:45;4.70;79.30
4874;DHT22;2451;49.970;9.068;2023-02-28T17:15:12;4.70;79.80
4874;DHT22;2451;49.970;9.068;2023-02-28T17:17:38;4.70;80.30
4874;DHT22;2451;49.970;9.068;2023-02-28T17:20:05;4.70;80.70
4874;DHT22;2451;49.970;9.068;2023-02-28T17:22:31;4.70;80.80
4874;DHT22;2451;49.970;9.068;2023-02-28T17:24:57;4.60;81.40
4874;DHT22;2451;49.970;9.068;2023-02-28T17:27:24;4.60;81.60
4874;DHT22;2451;49.970;9.068;2023-02-28T17:29:50;4.50;81.70
4874;DHT22;2451;49.970;9.068;2023-02-28T17:32:16;4.50;82.40
4874;DHT22;2451;49.970;9.068;2023-02-28T17:34:42;4.40;83.30
4874;DHT22;2451;49.970;9.068;2023-02-28T17:37:08;4.40;83.80
4874;DHT22;2451;49.970;9.068;2023-02-28T17:39:34;4.40;85.00
4874;DHT22;2451;49.970;9.068;2023-02-28T17:42:02;4.30;85.00
4874;DHT22;2451;49.970;9.068;2023-02-28T17:44:28;4.30;84.60
4874;DHT22;2451;49.970;9.068;2023-02-28T17:46:55;4.30;84.90
4874;DHT22;2451;49.970;9.068;2023-02-28T17:49:21;4.20;85.00
4874;DHT22;2451;49.970;9.068;2023-02-28T17:51:47;4.20;85.00
4874;DHT22;2451;49.970;9.068;2023-02-28T17:54:13;4.20;85.30
4874;DHT22;2451;49.970;9.068;2023-02-28T17:56:39;4.10;85.70
4874;DHT22;2451;49.970;9.068;2023-02-28T17:59:05;4.10;86.10
4874;DHT22;2451;49.970;9.068;2023-02-28T18:01:31;4.10;86.40
4874;DHT22;2451;49.970;9.068;2023-02-28T18:03:56;4.10;86.60
4874;DHT22;2451;49.970;9.068;2023-02-28T18:08:49;4.00;86.90
4874;DHT22;2451;49.970;9.068;2023-02-28T18:11:17;3.90;87.30
4874;DHT22;2451;49.970;9.068;2023-02-28T18:13:45;3.80;88.00
4874;DHT22;2451;49.970;9.068;2023-02-28T18:16:11;3.80;88.70
4874;DHT22;2451;49.970;9.068;2023-02-28T18:18:37;3.80;88.90
4874;DHT22;2451;49.970;9.068;2023-02-28T18:21:06;3.70;89.20
4874;DHT22;2451;49.970;9.068;2023-02-28T18:23:32;3.70;89.70
4874;DHT22;2451;49.970;9.068;2023-02-28T18:26:02;3.70;90.00
4874;DHT22;2451;49.970;9.068;2023-02-28T18:28:30;3.70;90.20
4874;DHT22;2451;49.970;9.068;2023-02-28T18:31:05;3.60;90.20
4874;DHT22;2451;49.970;9.068;2023-02-28T18:33:30;3.60;90.50
4874;DHT22;2451;49.970;9.068;2023-02-28T18:35:56;3.50;90.50
4874;DHT22;2451;49.970;9.068;2023-02-28T18:38:21;3.50;90.50
4874;DHT22;2451;49.970;9.068;2023-02-28T18:41:06;3.50;90.60
4874;DHT22;2451;49.970;9.068;2023-02-28T18:43:33;3.50;91.30
4874;DHT22;2451;49.970;9.068;2023-02-28T18:46:05;3.40;92.10